createdAt,value
2018-09-26T00:01:59.677Z,103467.30
2018-09-26T00:04:28.533Z,103479.95
2018-09-26T00:06:56.883Z,103483.03
2018-09-26T00:09:24.488Z,103480.37
2018-09-26T00:11:52.079Z,103473.78
2018-09-26T00:14:19.691Z,103462.38
2018-09-26T00:16:47.316Z,103452.33
2018-09-26T00:19:15.013Z,103436.95
2018-09-26T00:21:42.567Z,103427.27
2018-09-26T00:24:10.187Z,103425.09
2018-09-26T00:26:37.790Z,103421.56
2018-09-26T00:29:05.397Z,103421.56
2018-09-26T00:31:33.028Z,103411.93
2018-09-26T00:34:00.621Z,103410.17
2018-09-26T00:36:28.223Z,103400.06
2018-09-26T00:38:55.835Z,103400.06
2018-09-26T00:41:23.403Z,103394.36
2018-09-26T00:43:51.026Z,103397.41
2018-09-26T00:46:18.667Z,103395.20
2018-09-26T00:48:46.249Z,103396.95
2018-09-26T00:51:13.877Z,103396.48
2018-09-26T00:53:41.456Z,103395.20
2018-09-26T00:56:09.069Z,103402.23
2018-09-26T00:58:36.650Z,103400.06
2018-09-26T01:01:04.237Z,103394.39
2018-09-26T01:03:31.879Z,103401.81
2018-09-26T01:05:59.494Z,103414.97
2018-09-26T01:08:27.087Z,103403.16
2018-09-26T01:10:54.678Z,103388.69
2018-09-26T01:13:22.268Z,103385.17
2018-09-26T01:15:49.881Z,103395.20
2018-09-26T01:18:17.558Z,103391.67
2018-09-26T01:20:45.150Z,103389.92
2018-09-26T01:23:13.039Z,103380.70
2018-09-26T01:25:41.412Z,103381.98
2018-09-26T01:28:08.993Z,103380.70
2018-09-26T01:30:36.676Z,103371.93
2018-09-26T01:33:04.267Z,103372.37
2018-09-26T01:35:31.876Z,103367.09
2018-09-26T01:37:59.471Z,103358.33
2018-09-26T01:40:27.263Z,103352.25
2018-09-26T01:42:54.897Z,103333.38
2018-09-26T01:45:22.766Z,103348.73
2018-09-26T01:47:50.350Z,103360.54
2018-09-26T01:50:17.925Z,103360.92
2018-09-26T01:52:45.640Z,103361.34
2018-09-26T01:55:13.253Z,103352.16
2018-09-26T01:57:40.894Z,103348.64
2018-09-26T02:00:08.558Z,103349.47
2018-09-26T02:02:36.220Z,103338.98
2018-09-26T02:05:03.925Z,103327.59
2018-09-26T02:07:31.531Z,103325.38
2018-09-26T02:09:59.078Z,103326.69
2018-09-26T02:12:26.668Z,103332.84
2018-09-26T02:14:54.248Z,103325.83
2018-09-26T02:17:21.867Z,103339.84
2018-09-26T02:19:49.575Z,103332.42
2018-09-26T02:22:17.519Z,103318.44
2018-09-26T02:24:45.178Z,103321.92
2018-09-26T02:27:12.783Z,103319.72
2018-09-26T02:29:40.356Z,103313.16
2018-09-26T02:32:07.917Z,103303.97
2018-09-26T02:34:35.577Z,103303.53
2018-09-26T02:37:04.294Z,103307.47
2018-09-26T02:39:31.911Z,103307.47
2018-09-26T02:41:59.532Z,103313.58
2018-09-26T02:44:27.120Z,103306.57
2018-09-26T02:46:54.717Z,103309.61
2018-09-26T02:49:22.303Z,103307.41
2018-09-26T02:51:49.956Z,103309.61
2018-09-26T02:54:17.541Z,103305.23
2018-09-26T02:56:45.110Z,103302.16
2018-09-26T02:59:12.697Z,103295.98
2018-09-26T03:01:40.356Z,103303.44
2018-09-26T03:04:07.987Z,103307.44
2018-09-26T03:06:35.584Z,103301.26
2018-09-26T03:09:03.956Z,103291.16
2018-09-26T03:11:31.529Z,103295.09
2018-09-26T03:13:59.104Z,103292.89
2018-09-26T03:16:26.692Z,103295.06
2018-09-26T03:18:54.243Z,103280.63
2018-09-26T03:21:21.878Z,103259.11
2018-09-26T03:23:49.472Z,103260.95
2018-09-26T03:26:17.079Z,103255.73
2018-09-26T03:28:44.715Z,103254.42
2018-09-26T03:31:12.348Z,103260.13
2018-09-26T03:33:39.985Z,103259.25
2018-09-26T03:36:07.489Z,103253.56
2018-09-26T03:38:35.172Z,103246.11
2018-09-26T03:41:02.745Z,103252.64
2018-09-26T03:43:30.311Z,103258.75
2018-09-26T03:45:57.914Z,103251.24
2018-09-26T03:48:25.492Z,103254.70
2018-09-26T03:50:53.097Z,103246.00
2018-09-26T03:53:20.743Z,103240.73
2018-09-26T03:55:48.323Z,103231.01
2018-09-26T03:58:15.900Z,103234.98
2018-09-26T04:00:43.459Z,103233.22
2018-09-26T04:03:11.055Z,103229.73
2018-09-26T04:05:38.671Z,103231.01
2018-09-26T04:08:06.245Z,103237.54
2018-09-26T04:10:33.837Z,103226.98
2018-09-26T04:13:01.508Z,103213.88
2018-09-26T04:15:29.163Z,103208.27
2018-09-26T04:17:56.715Z,103211.37
2018-09-26T04:20:24.389Z,103210.92
2018-09-26T04:22:51.954Z,103197.36
2018-09-26T04:25:19.783Z,103192.11
2018-09-26T04:27:47.599Z,103191.25
2018-09-26T04:30:15.128Z,103190.36
2018-09-26T04:32:42.750Z,103189.88
2018-09-26T04:35:10.247Z,103183.72
2018-09-26T04:37:37.845Z,103180.64
2018-09-26T04:40:05.400Z,103172.33
2018-09-26T04:42:33.020Z,103171.44
2018-09-26T04:45:00.624Z,103174.12
2018-09-26T04:47:28.212Z,103168.93
2018-09-26T04:49:55.931Z,103162.34
2018-09-26T04:52:23.651Z,103160.12
2018-09-26T04:54:51.210Z,103166.13
2018-09-26T04:57:18.817Z,103159.94
2018-09-26T04:59:46.408Z,103149.43
2018-09-26T05:02:14.178Z,103146.33
2018-09-26T05:04:41.746Z,103144.52
2018-09-26T05:07:09.360Z,103137.52
2018-09-26T05:09:36.997Z,103147.14
2018-09-26T05:12:04.685Z,103140.98
2018-09-26T05:14:32.396Z,103142.26
2018-09-26T05:16:59.973Z,103141.84
2018-09-26T05:19:27.584Z,103133.08
2018-09-26T05:21:55.258Z,103123.91
2018-09-26T05:24:22.896Z,103116.48
2018-09-26T05:26:50.469Z,103116.91
2018-09-26T05:29:18.037Z,103102.05
2018-09-26T05:34:19.981Z,103109.52
2018-09-26T05:36:48.016Z,103106.95
2018-09-26T05:39:15.589Z,103087.73
2018-09-26T05:41:43.244Z,103081.67
2018-09-26T05:44:10.910Z,103072.08
2018-09-26T05:46:39.606Z,103073.83
2018-09-26T05:49:07.489Z,103076.89
2018-09-26T05:51:35.300Z,103074.75
2018-09-26T05:54:02.869Z,103082.22
2018-09-26T05:56:30.461Z,103080.45
2018-09-26T05:58:58.090Z,103082.20
2018-09-26T06:01:28.532Z,103075.19
2018-09-26T06:03:56.204Z,103075.66
2018-09-26T06:06:23.783Z,103070.84
2018-09-26T06:08:51.376Z,103066.48
2018-09-26T06:11:19.011Z,103059.06
2018-09-26T06:13:46.629Z,103057.78
2018-09-26T06:16:14.240Z,103061.71
2018-09-26T06:18:41.863Z,103066.06
2018-09-26T06:21:09.503Z,103055.58
2018-09-26T06:23:37.485Z,103060.87
2018-09-26T06:26:05.175Z,103058.80
2018-09-26T06:28:32.765Z,103057.48
2018-09-26T06:31:00.425Z,103061.79
2018-09-26T06:33:28.032Z,103049.44
2018-09-26T06:35:55.637Z,103056.47
2018-09-26T06:38:23.296Z,103062.19
2018-09-26T06:40:50.878Z,103062.61
2018-09-26T06:43:18.447Z,103059.09
2018-09-26T06:45:46.026Z,103066.48
2018-09-26T06:48:13.621Z,103055.98
2018-09-26T06:50:41.204Z,103060.40
2018-09-26T06:53:08.808Z,103063.92
2018-09-26T06:55:36.380Z,103062.19
2018-09-26T06:58:03.998Z,103056.97
2018-09-26T07:00:31.579Z,103065.70
2018-09-26T07:02:59.197Z,103062.12
2018-09-26T07:05:26.855Z,103060.46
2018-09-26T07:07:54.467Z,103056.86
2018-09-26T07:10:22.084Z,103054.34
2018-09-26T07:12:49.689Z,103049.55
2018-09-26T07:15:17.581Z,103053.89
2018-09-26T07:17:45.201Z,103059.62
2018-09-26T07:20:12.761Z,103057.86
2018-09-26T07:22:40.486Z,103060.92
2018-09-26T07:25:08.042Z,103048.26
2018-09-26T07:27:35.728Z,103042.14
2018-09-26T07:30:03.309Z,103042.56
2018-09-26T07:32:30.888Z,103045.64
2018-09-26T07:34:58.499Z,103037.33
2018-09-26T07:37:26.127Z,103030.41
2018-09-26T07:39:53.766Z,103018.23
2018-09-26T07:42:21.365Z,103018.70
2018-09-26T07:44:49.160Z,103028.77
2018-09-26T07:47:16.778Z,103029.68
2018-09-26T07:49:44.405Z,103025.29
2018-09-26T07:52:12.077Z,103029.69
2018-09-26T07:54:39.668Z,103027.06
2018-09-26T07:57:07.277Z,103031.08
2018-09-26T07:59:34.903Z,103024.09
2018-09-26T08:02:02.507Z,103018.88
2018-09-26T08:04:30.147Z,103007.50
2018-09-26T08:06:57.749Z,103016.23
2018-09-26T08:09:25.335Z,103031.13
2018-09-26T08:11:52.958Z,103039.50
2018-09-26T08:14:20.583Z,103039.48
2018-09-26T08:16:48.167Z,103038.64
2018-09-26T08:19:15.815Z,103029.04
2018-09-26T08:21:43.393Z,103032.97
2018-09-26T08:24:11.193Z,103038.25
2018-09-26T08:26:38.719Z,103021.62
2018-09-26T08:29:06.312Z,103032.55
2018-09-26T08:31:33.944Z,103026.00
2018-09-26T08:34:01.596Z,103029.09
2018-09-26T08:36:29.381Z,103031.73
2018-09-26T08:38:56.963Z,103026.97
2018-09-26T08:41:24.591Z,103023.03
2018-09-26T08:43:52.291Z,103011.27
2018-09-26T08:46:19.828Z,102999.02
2018-09-26T08:48:47.424Z,103000.80
2018-09-26T08:51:15.003Z,103002.17
2018-09-26T08:53:42.705Z,103003.50
2018-09-26T08:56:10.278Z,102989.96
2018-09-26T09:01:17.735Z,102980.35
2018-09-26T09:03:45.452Z,102975.52
2018-09-26T09:06:13.079Z,102976.83
2018-09-26T09:08:40.647Z,102990.41
2018-09-26T09:11:08.300Z,102999.60
2018-09-26T09:13:35.925Z,103000.91
2018-09-26T09:16:03.487Z,103000.52
2018-09-26T09:18:31.103Z,102988.73
2018-09-26T09:20:58.703Z,103006.23
2018-09-26T09:23:26.320Z,102997.08
2018-09-26T09:25:54.004Z,102995.75
2018-09-26T09:28:21.649Z,102996.20
2018-09-26T09:30:49.240Z,102984.39
2018-09-26T09:33:16.851Z,102994.02
2018-09-26T09:35:44.432Z,102992.69
2018-09-26T09:38:12.039Z,102980.00
2018-09-26T09:40:39.705Z,102976.53
2018-09-26T09:43:07.330Z,102967.33
2018-09-26T09:45:35.058Z,102977.42
2018-09-26T09:48:02.677Z,102967.36
2018-09-26T09:50:30.349Z,102959.11
2018-09-26T09:52:57.936Z,102944.16
2018-09-26T09:55:25.592Z,102946.79
2018-09-26T09:57:53.195Z,102946.79
2018-09-26T10:00:25.411Z,102952.94
2018-09-26T10:02:53.138Z,102966.12
2018-09-26T10:05:20.693Z,102968.33
2018-09-26T10:07:48.304Z,102977.56
2018-09-26T10:10:15.916Z,102959.19
2018-09-26T10:12:43.512Z,102937.34
2018-09-26T10:15:11.195Z,102947.00
2018-09-26T10:17:38.946Z,102950.09
2018-09-26T10:20:06.683Z,102946.14
2018-09-26T10:22:34.429Z,102940.91
2018-09-26T10:25:02.257Z,102937.86
2018-09-26T10:27:36.588Z,102924.25
2018-09-26T10:30:04.618Z,102919.02
2018-09-26T10:32:32.251Z,102922.94
2018-09-26T10:34:59.958Z,102922.94
2018-09-26T10:37:27.724Z,102923.38
2018-09-26T10:39:55.396Z,102914.62
2018-09-26T10:42:23.152Z,102919.02
2018-09-26T10:44:50.756Z,102911.61
2018-09-26T10:47:18.465Z,102917.75
2018-09-26T10:49:46.032Z,102905.09
2018-09-26T10:52:13.674Z,102909.49
2018-09-26T10:54:41.290Z,102904.28
2018-09-26T10:57:08.928Z,102893.34
2018-09-26T10:59:36.535Z,102892.03
2018-09-26T11:02:04.168Z,102881.55
2018-09-26T11:04:31.813Z,102876.33
2018-09-26T11:06:59.433Z,102875.42
2018-09-26T11:09:27.050Z,102868.84
2018-09-26T11:11:54.633Z,102865.33
2018-09-26T11:14:22.340Z,102860.55
2018-09-26T11:16:49.952Z,102856.15
2018-09-26T11:19:17.543Z,102854.84
2018-09-26T11:21:45.185Z,102862.30
2018-09-26T11:24:13.105Z,102862.31
2018-09-26T11:26:40.836Z,102850.95
2018-09-26T11:29:08.419Z,102836.93
2018-09-26T11:31:37.236Z,102841.37
2018-09-26T11:34:04.926Z,102824.70
2018-09-26T11:36:32.569Z,102833.04
2018-09-26T11:39:00.231Z,102826.05
2018-09-26T11:41:27.892Z,102819.91
2018-09-26T11:43:55.512Z,102821.64
2018-09-26T11:46:23.659Z,102810.72
2018-09-26T11:48:51.234Z,102817.28
2018-09-26T11:51:19.103Z,102805.00
2018-09-26T11:53:46.733Z,102809.40
2018-09-26T11:56:14.849Z,102787.47
2018-09-26T11:58:42.424Z,102791.41
2018-09-26T12:01:10.008Z,102794.05
2018-09-26T12:03:37.620Z,102793.20
2018-09-26T12:06:05.260Z,102790.55
2018-09-26T12:08:32.881Z,102793.17
2018-09-26T12:11:00.536Z,102801.97
2018-09-26T12:13:28.167Z,102793.20
2018-09-26T12:15:55.812Z,102790.98
2018-09-26T12:18:23.488Z,102790.13
2018-09-26T12:20:51.007Z,102790.99
2018-09-26T12:23:18.616Z,102782.64
2018-09-26T12:25:46.239Z,102783.53
2018-09-26T12:28:13.943Z,102782.66
2018-09-26T12:30:41.560Z,102784.83
2018-09-26T12:33:09.182Z,102779.58
2018-09-26T12:35:36.802Z,102794.05
2018-09-26T12:38:04.431Z,102785.30
2018-09-26T12:40:32.077Z,102790.08
2018-09-26T12:42:59.715Z,102793.59
2018-09-26T12:45:28.327Z,102798.87
2018-09-26T12:47:55.905Z,102792.70
2018-09-26T12:50:23.543Z,102795.77
2018-09-26T12:52:51.140Z,102784.39
2018-09-26T12:55:18.756Z,102771.67
2018-09-26T12:57:46.400Z,102776.50
2018-09-26T13:00:14.102Z,102773.88
2018-09-26T13:02:41.758Z,102766.44
2018-09-26T13:05:09.341Z,102765.56
2018-09-26T13:07:37.260Z,102756.34
2018-09-26T13:10:04.831Z,102749.34
2018-09-26T13:12:32.430Z,102750.19
2018-09-26T13:15:00.056Z,102743.62
2018-09-26T13:17:27.717Z,102740.58
2018-09-26T13:19:55.417Z,102740.11
2018-09-26T13:22:23.133Z,102743.20
2018-09-26T13:24:50.709Z,102747.12
2018-09-26T13:27:18.319Z,102738.37
2018-09-26T13:29:45.943Z,102733.97
2018-09-26T13:32:13.588Z,102726.97
2018-09-26T13:34:41.207Z,102739.25
2018-09-26T13:37:08.811Z,102734.85
2018-09-26T13:39:36.462Z,102727.41
2018-09-26T13:42:04.119Z,102734.84
2018-09-26T13:44:31.755Z,102736.61
2018-09-26T13:46:59.372Z,102737.05
2018-09-26T13:49:27.012Z,102744.51
2018-09-26T13:51:54.636Z,102732.23
2018-09-26T13:54:22.281Z,102730.48
2018-09-26T13:56:49.913Z,102726.08
2018-09-26T13:59:17.762Z,102726.08
2018-09-26T14:01:45.468Z,102725.66
2018-09-26T14:04:13.124Z,102723.02
2018-09-26T14:06:40.893Z,102719.50
2018-09-26T14:09:08.591Z,102719.06
2018-09-26T14:11:36.269Z,102709.86
2018-09-26T14:14:03.902Z,102711.17
2018-09-26T14:16:31.601Z,102707.67
2018-09-26T14:18:59.192Z,102698.03
2018-09-26T14:21:26.775Z,102709.00
2018-09-26T14:23:54.434Z,102704.19
2018-09-26T14:26:22.175Z,102714.70
2018-09-26T14:28:49.779Z,102710.73
2018-09-26T14:31:17.441Z,102709.83
2018-09-26T14:33:45.127Z,102706.33
2018-09-26T14:36:12.735Z,102709.38
2018-09-26T14:38:40.437Z,102713.32
2018-09-26T14:41:08.124Z,102705.42
2018-09-26T14:43:35.848Z,102707.19
2018-09-26T14:46:03.681Z,102708.96
2018-09-26T14:48:31.296Z,102697.97
2018-09-26T14:50:58.925Z,102704.11
2018-09-26T14:53:26.651Z,102708.05
2018-09-26T14:55:54.242Z,102708.05
2018-09-26T14:58:21.966Z,102704.98
2018-09-26T15:00:49.524Z,102706.75
2018-09-26T15:03:17.150Z,102704.98
2018-09-26T15:05:44.793Z,102707.16
2018-09-26T15:08:12.409Z,102701.48
2018-09-26T15:10:40.068Z,102703.25
2018-09-26T15:13:07.656Z,102705.43
2018-09-26T15:15:35.308Z,102701.05
2018-09-26T15:18:02.956Z,102704.10
2018-09-26T15:20:30.581Z,102710.67
2018-09-26T15:22:58.239Z,102717.66
2018-09-26T15:25:25.821Z,102722.91
2018-09-26T15:27:53.439Z,102719.00
2018-09-26T15:30:21.063Z,102729.93
2018-09-26T15:32:48.724Z,102729.92
2018-09-26T15:35:16.436Z,102725.55
2018-09-26T15:37:44.035Z,102741.33
2018-09-26T15:40:11.639Z,102746.58
2018-09-26T15:42:39.245Z,102746.14
2018-09-26T15:45:07.144Z,102744.37
2018-09-26T15:47:34.877Z,102746.55
2018-09-26T15:50:02.500Z,102755.75
2018-09-26T15:52:30.096Z,102756.65
2018-09-26T15:54:58.159Z,102761.45
2018-09-26T15:57:25.811Z,102760.58
2018-09-26T15:59:53.457Z,102773.74
2018-09-26T16:02:21.129Z,102761.89
2018-09-26T16:04:48.662Z,102757.06
2018-09-26T16:07:16.339Z,102756.20
2018-09-26T16:09:43.941Z,102750.49
2018-09-26T16:12:11.603Z,102747.02
2018-09-26T16:14:39.196Z,102739.55
2018-09-26T16:17:06.781Z,102735.59
2018-09-26T16:19:34.410Z,102739.11
2018-09-26T16:22:02.004Z,102742.17
2018-09-26T16:27:04.006Z,102737.77
2018-09-26T16:29:31.641Z,102733.40
2018-09-26T16:31:59.309Z,102739.53
2018-09-26T16:34:27.026Z,102735.58
2018-09-26T16:36:54.689Z,102738.64
2018-09-26T16:39:22.475Z,102739.96
2018-09-26T16:41:49.987Z,102747.84
2018-09-26T16:44:17.632Z,102746.07
2018-09-26T16:46:45.332Z,102744.33
2018-09-26T16:49:12.950Z,102743.02
2018-09-26T16:51:40.647Z,102736.87
2018-09-26T16:54:08.426Z,102736.87
2018-09-26T16:56:36.042Z,102731.61
2018-09-26T16:59:03.734Z,102730.76
2018-09-26T17:01:31.369Z,102726.80
2018-09-26T17:03:58.957Z,102732.06
2018-09-26T17:06:26.579Z,102733.38
2018-09-26T17:08:54.149Z,102734.25
2018-09-26T17:11:21.957Z,102739.51
2018-09-26T17:13:49.540Z,102733.78
2018-09-26T17:16:17.162Z,102740.35
2018-09-26T17:18:44.794Z,102736.41
2018-09-26T17:21:12.412Z,102732.93
2018-09-26T17:23:40.024Z,102727.67
2018-09-26T17:26:07.763Z,102728.09
2018-09-26T17:28:35.402Z,102728.55
2018-09-26T17:31:02.999Z,102732.49
2018-09-26T17:33:30.939Z,102741.23
2018-09-26T17:35:58.605Z,102735.55
2018-09-26T17:38:26.245Z,102741.69
2018-09-26T17:40:53.921Z,102743.42
2018-09-26T17:43:21.655Z,102750.88
2018-09-26T17:45:49.247Z,102743.86
2018-09-26T17:48:16.840Z,102737.30
2018-09-26T17:50:44.471Z,102736.87
2018-09-26T17:53:12.097Z,102728.09
2018-09-26T17:55:39.772Z,102728.09
2018-09-26T17:58:07.451Z,102717.59
2018-09-26T18:00:35.071Z,102721.97
2018-09-26T18:03:02.671Z,102720.65
2018-09-26T18:05:30.364Z,102735.98
2018-09-26T18:07:58.264Z,102737.29
2018-09-26T18:10:25.848Z,102740.38
2018-09-26T18:12:53.492Z,102748.23
2018-09-26T18:15:21.164Z,102744.31
2018-09-26T18:17:48.848Z,102756.11
2018-09-26T18:20:16.553Z,102753.95
2018-09-26T18:22:44.194Z,102753.53
2018-09-26T18:25:12.129Z,102749.14
2018-09-26T18:27:39.771Z,102741.72
2018-09-26T18:30:07.472Z,102739.52
2018-09-26T18:32:35.070Z,102746.52
2018-09-26T18:35:02.711Z,102750.05
2018-09-26T18:37:30.353Z,102755.73
2018-09-26T18:39:58.028Z,102766.67
2018-09-26T18:42:25.631Z,102769.30
2018-09-26T18:44:53.345Z,102766.25
2018-09-26T18:47:20.918Z,102761.01
2018-09-26T18:49:48.672Z,102753.13
2018-09-26T18:52:16.260Z,102757.92
2018-09-26T18:54:43.839Z,102774.59
2018-09-26T18:57:11.525Z,102764.09
2018-09-26T18:59:39.095Z,102759.68
2018-09-26T19:02:06.735Z,102756.19
2018-09-26T19:04:34.434Z,102766.70
2018-09-26T19:07:02.121Z,102775.91
2018-09-26T19:09:29.732Z,102761.89
2018-09-26T19:11:57.385Z,102768.45
2018-09-26T19:14:25.011Z,102775.45
2018-09-26T19:16:52.609Z,102764.08
2018-09-26T19:19:20.216Z,102768.45
2018-09-26T19:21:47.819Z,102769.34
2018-09-26T19:24:15.424Z,102759.25
2018-09-26T19:26:43.057Z,102775.02
2018-09-26T19:29:10.688Z,102764.50
2018-09-26T19:31:39.240Z,102776.33
2018-09-26T19:34:06.875Z,102766.25
2018-09-26T19:36:34.468Z,102761.00
2018-09-26T19:39:02.268Z,102770.19
2018-09-26T19:41:29.839Z,102770.22
2018-09-26T19:43:57.603Z,102771.50
2018-09-26T19:46:25.124Z,102774.13
2018-09-26T19:48:52.745Z,102779.39
2018-09-26T19:51:20.407Z,102768.87
2018-09-26T19:53:48.047Z,102784.64
2018-09-26T19:56:15.733Z,102780.27
2018-09-26T19:58:43.259Z,102781.58
2018-09-26T20:01:10.868Z,102782.47
2018-09-26T20:03:38.420Z,102782.47
2018-09-26T20:06:06.081Z,102769.75
2018-09-26T20:08:33.657Z,102768.01
2018-09-26T20:11:02.096Z,102775.89
2018-09-26T20:13:29.692Z,102779.84
2018-09-26T20:15:57.344Z,102780.71
2018-09-26T20:18:24.917Z,102786.41
2018-09-26T20:20:52.547Z,102781.60
2018-09-26T20:23:20.245Z,102776.77
2018-09-26T20:25:47.790Z,102782.48
2018-09-26T20:28:15.688Z,102779.86
2018-09-26T20:30:43.272Z,102773.28
2018-09-26T20:33:11.034Z,102778.98
2018-09-26T20:35:38.652Z,102764.09
2018-09-26T20:38:06.183Z,102757.05
2018-09-26T20:40:33.768Z,102756.17
2018-09-26T20:43:01.367Z,102763.19
2018-09-26T20:45:29.010Z,102764.48
2018-09-26T20:47:56.773Z,102753.98
2018-09-26T20:50:24.423Z,102759.25
2018-09-26T20:52:52.206Z,102757.91
2018-09-26T20:55:19.787Z,102750.92
2018-09-26T20:57:47.420Z,102747.87
2018-09-26T21:00:14.994Z,102739.09
2018-09-26T21:02:42.582Z,102744.36
2018-09-26T21:05:10.421Z,102745.67
2018-09-26T21:07:38.012Z,102740.42
2018-09-26T21:10:05.682Z,102745.24
2018-09-26T21:12:33.264Z,102747.41
2018-09-26T21:15:00.863Z,102751.35
2018-09-26T21:17:28.493Z,102753.56
2018-09-26T21:19:56.119Z,102762.32
2018-09-26T21:22:23.714Z,102763.64
2018-09-26T21:24:51.299Z,102761.44
2018-09-26T21:27:18.965Z,102759.70
2018-09-26T21:29:46.520Z,102759.25
2018-09-26T21:32:14.456Z,102759.25
2018-09-26T21:34:42.037Z,102755.75
2018-09-26T21:37:09.626Z,102759.25
2018-09-26T21:39:37.251Z,102767.56
2018-09-26T21:42:04.825Z,102762.31
2018-09-26T21:44:32.420Z,102762.77
2018-09-26T21:46:59.997Z,102763.20
2018-09-26T21:49:27.625Z,102767.61
2018-09-26T21:51:55.213Z,102760.61
2018-09-26T21:54:22.884Z,102757.11
2018-09-26T21:56:50.520Z,102761.08
2018-09-26T21:59:18.154Z,102766.77
2018-09-26T22:01:45.747Z,102760.62
2018-09-26T22:04:13.382Z,102758.43
2018-09-26T22:06:41.041Z,102756.23
2018-09-26T22:09:09.184Z,102754.93
2018-09-26T22:11:36.768Z,102747.05
2018-09-26T22:14:04.394Z,102748.81
2018-09-26T22:16:31.994Z,102745.31
2018-09-26T22:18:59.560Z,102763.71
2018-09-26T22:21:27.188Z,102752.76
2018-09-26T22:23:54.749Z,102760.64
2018-09-26T22:26:22.390Z,102752.73
2018-09-26T22:28:50.040Z,102759.31
2018-09-26T22:31:17.750Z,102757.56
2018-09-26T22:33:45.404Z,102755.36
2018-09-26T22:36:13.007Z,102761.92
2018-09-26T22:38:40.676Z,102756.22
2018-09-26T22:41:08.288Z,102750.95
2018-09-26T22:43:35.885Z,102755.78
2018-09-26T22:46:03.912Z,102750.52
2018-09-26T22:48:31.507Z,102762.34
2018-09-26T22:50:59.092Z,102758.86
2018-09-26T22:53:26.783Z,102757.55
2018-09-26T22:55:54.382Z,102754.91
2018-09-26T22:58:21.977Z,102756.23
2018-09-26T23:03:23.954Z,102753.15
2018-09-26T23:05:51.615Z,102744.83
2018-09-26T23:08:19.216Z,102753.15
2018-09-26T23:10:46.884Z,102746.57
2018-09-26T23:13:14.464Z,102738.27
2018-09-26T23:15:42.096Z,102743.94
2018-09-26T23:18:09.661Z,102742.63
2018-09-26T23:20:37.268Z,102733.00
2018-09-26T23:23:04.835Z,102735.17
2018-09-26T23:25:32.473Z,102731.69
2018-09-26T23:28:00.085Z,102736.05
2018-09-26T23:30:27.652Z,102735.62
2018-09-26T23:32:55.264Z,102731.24
2018-09-26T23:35:22.868Z,102735.62
2018-09-26T23:37:50.458Z,102733.41
2018-09-26T23:40:18.132Z,102731.67
2018-09-26T23:42:45.774Z,102728.16
2018-09-26T23:45:13.428Z,102726.42
2018-09-26T23:47:41.046Z,102733.41
2018-09-26T23:50:08.721Z,102723.36
2018-09-26T23:52:36.318Z,102725.98
2018-09-26T23:55:03.944Z,102725.52
2018-09-26T23:57:31.588Z,102725.98
2018-09-26T23:59:59.265Z,102729.93
